Time;durP1;ratioP1;P1;durP2;ratioP2;P2;SDS_P1;SDS_P2;PMS_P1;PMS_P2;Temp;Humidity;BMP_temperature;BMP_pressure;BME280_temperature;BME280_humidity;BME280_pressure;Samples;Min_cycle;Max_cycle;Signal;HPM_P1;HPM_P2
2023/04/25 00:01:09;;;;;;;3.13;2.93;;;;;;;12.79;100.00;94151.28;5074847;28;20918;-82
2023/04/25 00:03:36;;;;;;;4.00;3.70;;;;;;;12.65;100.00;94136.94;5074901;28;20516;-81
2023/04/25 00:06:03;;;;;;;5.73;4.00;;;;;;;12.20;100.00;94145.19;5074825;28;20516;-81
2023/04/25 00:08:31;;;;;;;5.60;3.80;;;;;;;12.04;100.00;94143.31;5074209;28;20457;-81
2023/04/25 00:10:58;;;;;;;6.17;4.50;;;;;;;11.89;100.00;94139.63;5073937;28;20452;-82
2023/04/25 00:13:25;;;;;;;6.23;3.67;;;;;;;11.76;100.00;94127.69;5074491;28;20864;-81
2023/04/25 00:15:52;;;;;;;4.20;3.77;;;;;;;11.56;100.00;94118.34;5074509;28;20442;-80
2023/04/25 00:18:19;;;;;;;4.97;4.47;;;;;;;11.59;100.00;94107.56;5074462;28;20480;-81
2023/04/25 00:20:46;;;;;;;6.10;4.70;;;;;;;11.65;100.00;94104.31;5074750;28;20573;-81
2023/04/25 00:23:17;;;;;;;5.43;4.83;;;;;;;11.89;100.00;94113.34;5074646;28;20437;-80
2023/04/25 00:25:45;;;;;;;5.83;3.77;;;;;;;12.04;100.00;94102.06;5074349;28;20968;-81
2023/04/25 00:28:12;;;;;;;5.95;5.45;;;;;;;12.24;100.00;94112.31;5074010;28;20481;-81
2023/04/25 00:30:39;;;;;;;6.50;5.90;;;;;;;12.35;100.00;94094.44;5074314;28;20668;-81
2023/04/25 00:33:05;;;;;;;9.13;6.37;;;;;;;12.24;100.00;94081.59;5074284;28;20449;-81
2023/04/25 00:35:33;;;;;;;9.30;5.90;;;;;;;12.24;100.00;94081.59;5074622;28;21020;-81
2023/04/25 00:37:59;;;;;;;7.23;6.00;;;;;;;12.41;100.00;94082.44;5073966;28;21247;-81
2023/04/25 00:40:27;;;;;;;5.57;5.10;;;;;;;12.52;100.00;94074.25;5039058;28;20502;-81
2023/04/25 00:42:55;;;;;;;5.40;4.90;;;;;;;12.64;100.00;94069.50;5073978;28;20448;-82
2023/04/25 00:45:22;;;;;;;8.37;5.17;;;;;;;12.71;100.00;94062.59;5074009;28;20453;-81
2023/04/25 00:47:48;;;;;;;5.87;5.27;;;;;;;12.80;100.00;94060.81;5074294;28;20440;-81
2023/04/25 00:50:15;;;;;;;8.83;6.20;;;;;;;12.84;100.00;94056.84;5074011;28;20499;-81
2023/04/25 00:52:44;;;;;;;5.73;5.23;;;;;;;12.89;100.00;94054.53;5073654;28;20449;-81
2023/04/25 00:55:13;;;;;;;8.00;6.10;;;;;;;12.90;100.00;94051.75;5073847;28;21031;-81
2023/04/25 00:57:41;;;;;;;6.83;6.13;;;;;;;12.96;100.00;94044.97;5073895;28;20540;-82
2023/04/25 01:00:11;;;;;;;7.10;5.90;;;;;;;13.01;100.00;94048.78;5073733;28;20508;-81
2023/04/25 01:02:38;;;;;;;14.03;7.33;;;;;;;12.94;100.00;94049.59;5073606;28;20532;-81
2023/04/25 01:05:06;;;;;;;8.33;6.47;;;;;;;12.95;100.00;94049.44;5073655;28;20449;-81
2023/04/25 01:07:32;;;;;;;7.63;6.13;;;;;;;12.97;100.00;94046.63;5073799;28;20449;-80
2023/04/25 01:09:59;;;;;;;7.07;6.37;;;;;;;12.90;100.00;94027.22;5074236;28;20501;-81
2023/04/25 01:12:26;;;;;;;10.97;6.80;;;;;;;12.86;100.00;94029.38;5073299;28;20445;-81
2023/04/25 01:14:53;;;;;;;6.00;5.40;;;;;;;12.78;100.00;94032.00;5073259;28;20457;-81
2023/04/25 01:17:21;;;;;;;5.90;5.30;;;;;;;12.58;100.00;94020.16;5073318;28;20927;-81
2023/04/25 01:19:48;;;;;;;5.93;5.33;;;;;;;12.63;100.00;94023.09;5073121;28;21009;-81
2023/04/25 01:22:17;;;;;;;6.17;5.57;;;;;;;12.68;100.00;94026.06;5073704;28;20464;-81
2023/04/25 01:24:44;;;;;;;7.23;6.20;;;;;;;12.68;100.00;94020.78;5073449;28;20836;-81
2023/04/25 01:27:11;;;;;;;5.30;4.80;;;;;;;12.72;100.00;94022.09;5073525;28;20444;-81
2023/04/25 01:29:38;;;;;;;7.30;5.60;;;;;;;12.76;100.00;94022.63;5073058;28;20455;-80
2023/04/25 01:32:06;;;;;;;6.10;5.50;;;;;;;12.71;100.00;94020.47;5073339;28;20449;-82
2023/04/25 01:34:33;;;;;;;7.40;5.40;;;;;;;12.55;100.00;94012.56;5073390;28;20484;-81
2023/04/25 01:37:01;;;;;;;5.03;4.60;;;;;;;12.59;100.00;94024.41;5073301;28;20433;-81
2023/04/25 01:39:29;;;;;;;4.87;4.13;;;;;;;12.63;100.00;94017.84;5073530;28;20501;-81
2023/04/25 01:41:57;;;;;;;5.33;4.83;;;;;;;12.67;100.00;94021.78;5073194;28;20834;-81
2023/04/25 01:44:23;;;;;;;6.33;5.80;;;;;;;12.58;100.00;94015.69;5073561;28;20464;-81
2023/04/25 01:46:50;;;;;;;5.60;4.13;;;;;;;12.45;100.00;94017.19;5072818;28;20453;-80
2023/04/25 01:49:17;;;;;;;5.33;4.80;;;;;;;12.37;100.00;94008.28;5073329;28;20510;-81
2023/04/25 01:51:44;;;;;;;5.90;5.30;;;;;;;12.31;100.00;94014.19;5073467;28;20436;-81
2023/04/25 01:54:12;;;;;;;5.90;4.60;;;;;;;12.32;100.00;94026.34;5073054;28;20441;-81
2023/04/25 01:56:40;;;;;;;5.30;4.80;;;;;;;12.33;100.00;94027.19;5073336;28;20537;-81
2023/04/25 01:59:07;;;;;;;5.73;5.23;;;;;;;12.38;100.00;94030.13;5072707;28;20472;-81
2023/04/25 02:01:34;;;;;;;7.83;6.07;;;;;;;12.41;100.00;94029.81;5073352;28;20783;-81
2023/04/25 02:04:00;;;;;;;5.93;5.00;;;;;;;12.37;100.00;94029.31;5073399;28;20448;-81
2023/04/25 02:06:27;;;;;;;5.40;4.93;;;;;;;12.40;100.00;94023.72;5073306;28;20448;-81
2023/04/25 02:08:54;;;;;;;6.20;5.60;;;;;;;12.35;100.00;94026.03;5073410;28;20959;-81
2023/04/25 02:11:21;;;;;;;7.37;5.07;;;;;;;12.45;100.00;94036.44;5072835;28;20437;-81
2023/04/25 02:13:49;;;;;;;7.07;5.70;;;;;;;12.44;100.00;94034.78;5073262;28;20428;-80
2023/04/25 02:16:16;;;;;;;7.27;6.23;;;;;;;12.37;100.00;94028.50;5072903;28;20911;-81
2023/04/25 02:18:42;;;;;;;6.53;5.93;;;;;;;12.21;100.00;94010.06;5076622;28;20502;-81
2023/04/25 02:21:09;;;;;;;6.23;5.63;;;;;;;12.33;100.00;94014.03;5076830;28;20445;-81
2023/04/25 02:23:36;;;;;;;6.57;5.93;;;;;;;12.41;100.00;94003.50;5077008;28;20434;-81
2023/04/25 02:26:03;;;;;;;5.80;5.30;;;;;;;12.39;100.00;94003.66;5076929;28;20432;-81
2023/04/25 02:28:30;;;;;;;9.87;7.20;;;;;;;12.44;100.00;94008.47;5076670;28;20502;-81
2023/04/25 02:30:58;;;;;;;8.13;6.10;;;;;;;12.46;100.00;94010.94;5076679;28;20449;-81
2023/04/25 02:33:25;;;;;;;7.17;6.47;;;;;;;12.48;100.00;93999.25;5076640;28;20429;-81
2023/04/25 02:35:51;;;;;;;8.40;5.97;;;;;;;12.50;100.00;93994.66;5076393;28;20449;-81
2023/04/25 02:38:18;;;;;;;8.03;6.50;;;;;;;12.21;100.00;93981.97;5076836;28;20439;-81
2023/04/25 02:40:45;;;;;;;8.43;7.63;;;;;;;12.22;100.00;93994.13;5076773;28;20538;-81
2023/04/25 02:43:12;;;;;;;9.60;7.30;;;;;;;12.27;100.00;93997.09;5076204;28;20445;-81
2023/04/25 02:45:39;;;;;;;7.37;6.63;;;;;;;12.33;100.00;93988.53;5076122;28;20444;-81
2023/04/25 02:48:07;;;;;;;12.20;6.87;;;;;;;12.36;100.00;93990.03;5076134;28;20439;-81
2023/04/25 02:50:34;;;;;;;8.27;6.60;;;;;;;12.42;100.00;93989.38;5076458;28;20490;-81
2023/04/25 02:53:01;;;;;;;7.10;6.40;;;;;;;12.45;100.00;93996.13;5057553;28;20464;-81
2023/04/25 02:55:27;;;;;;;8.20;6.40;;;;;;;12.38;100.00;93995.94;5076296;28;20432;-81
2023/04/25 02:57:55;;;;;;;7.40;6.70;;;;;;;12.39;100.00;93985.25;5076098;28;20450;-81
2023/04/25 03:00:22;;;;;;;10.43;6.97;;;;;;;12.43;100.00;93985.75;5076081;28;20507;-81
2023/04/25 03:02:50;;;;;;;6.97;5.90;;;;;;;12.43;100.00;93979.66;5075965;28;20623;-81
2023/04/25 03:05:19;;;;;;;7.93;6.30;;;;;;;12.45;100.00;93977.72;5075748;28;20445;-81
2023/04/25 03:07:46;;;;;;;10.30;6.50;;;;;;;12.46;100.00;93984.63;5075989;28;20444;-81
2023/04/25 03:10:13;;;;;;;8.17;6.40;;;;;;;12.47;100.00;93984.47;5076234;28;20440;-81
2023/04/25 03:12:39;;;;;;;13.43;7.03;;;;;;;12.49;100.00;93979.03;5076235;28;20433;-81
2023/04/25 03:15:07;;;;;;;10.73;7.80;;;;;;;12.47;100.00;93978.38;5076104;28;20440;-81
2023/04/25 03:17:34;;;;;;;11.37;7.53;;;;;;;12.44;100.00;93976.91;5075342;28;20812;-81
2023/04/25 03:20:01;;;;;;;8.53;7.50;;;;;;;12.44;100.00;93979.53;5076033;28;20867;-80
2023/04/25 03:22:29;;;;;;;10.73;7.93;;;;;;;12.43;100.00;93979.66;5076175;28;20525;-81
2023/04/25 03:24:56;;;;;;;12.13;8.60;;;;;;;12.40;100.00;93970.28;5075770;28;20456;-82
2023/04/25 03:27:23;;;;;;;10.83;7.43;;;;;;;12.38;100.00;93980.97;5075337;28;20986;-82
2023/04/25 03:29:49;;;;;;;12.27;8.70;;;;;;;12.38;100.00;93967.81;5075179;28;20940;-81
2023/04/25 03:32:16;;;;;;;14.43;8.90;;;;;;;12.40;100.00;93979.00;5075573;28;20574;-81
2023/04/25 03:34:43;;;;;;;11.30;8.80;;;;;;;12.30;100.00;93970.44;5075506;28;20472;-82
2023/04/25 03:37:10;;;;;;;12.40;8.43;;;;;;;12.29;100.00;93979.34;5075456;28;20433;-82
2023/04/25 03:39:38;;;;;;;12.80;8.63;;;;;;;12.20;100.00;93980.31;5075348;28;20530;-82
2023/04/25 03:42:05;;;;;;;14.03;10.10;;;;;;;12.19;100.00;93980.47;5075315;28;20528;-82
2023/04/25 03:44:32;;;;;;;12.10;9.13;;;;;;;12.20;100.00;93968.97;5075220;28;20457;-81
2023/04/25 03:46:59;;;;;;;13.10;10.03;;;;;;;12.23;100.00;93974.72;5075140;28;20449;-81
2023/04/25 03:49:26;;;;;;;13.20;10.70;;;;;;;12.26;100.00;93978.84;5039693;28;20442;-82
2023/04/25 03:51:52;;;;;;;13.67;11.20;;;;;;;12.30;100.00;93975.72;5039740;28;20441;-82
2023/04/25 03:54:20;;;;;;;16.60;11.03;;;;;;;12.34;100.00;93977.03;5039306;28;20441;-81
2023/04/25 03:56:48;;;;;;;13.53;11.70;;;;;;;12.39;100.00;93969.47;5074674;28;20436;-82
2023/04/25 03:59:15;;;;;;;13.07;11.00;;;;;;;12.48;100.00;93975.56;5074170;28;20872;-81
2023/04/25 04:01:42;;;;;;;13.87;9.90;;;;;;;12.57;100.00;93974.59;5073820;28;20930;-81
2023/04/25 04:04:08;;;;;;;11.50;9.50;;;;;;;12.82;100.00;93979.84;5039326;28;20447;-81
2023/04/25 04:06:36;;;;;;;14.57;11.63;;;;;;;13.01;100.00;93974.22;5074499;28;20533;-82
2023/04/25 04:09:03;;;;;;;17.03;9.57;;;;;;;13.13;100.00;93972.88;5074015;28;20483;-81
2023/04/25 04:11:31;;;;;;;12.70;9.97;;;;;;;13.25;100.00;93970.72;5074559;28;20426;-81
2023/04/25 04:13:59;;;;;;;13.87;9.10;;;;;;;13.61;100.00;93984.31;5074480;28;20439;-81
2023/04/25 04:16:26;;;;;;;13.23;9.47;;;;;;;13.71;100.00;93976.19;5055841;28;20504;-85
2023/04/25 04:18:52;;;;;;;10.10;9.10;;;;;;;13.54;100.00;93970.97;5059768;28;20457;-82
2023/04/25 04:21:19;;;;;;;13.83;12.07;;;;;;;13.43;100.00;93973.97;5054187;28;20539;-81
2023/04/25 04:23:46;;;;;;;15.43;13.37;;;;;;;13.45;100.00;93987.00;5068074;28;20446;-85
2023/04/25 04:26:15;;;;;;;16.87;12.80;;;;;;;13.40;100.00;93987.50;5074660;28;20441;-81
2023/04/25 04:28:42;;;;;;;22.20;14.57;;;;;;;13.25;100.00;93986.53;5074307;28;20454;-82
2023/04/25 04:31:10;;;;;;;23.00;15.00;;;;;;;12.96;100.00;93987.06;5074293;28;20450;-81
2023/04/25 04:33:37;;;;;;;19.93;13.93;;;;;;;12.76;100.00;93983.97;5073548;28;20946;-81
2023/04/25 04:36:07;;;;;;;20.17;13.70;;;;;;;12.35;100.00;93983.13;5074143;28;20791;-79
2023/04/25 04:38:34;;;;;;;18.10;14.27;;;;;;;12.06;100.00;93983.56;5074292;28;20596;-82
2023/04/25 04:41:01;;;;;;;19.80;14.47;;;;;;;12.20;100.00;93990.84;5073793;28;20491;-81
2023/04/25 04:43:28;;;;;;;19.07;14.30;;;;;;;12.24;100.00;93981.63;5073705;28;20923;-82
2023/04/25 04:45:56;;;;;;;26.10;15.10;;;;;;;12.27;100.00;93970.78;5073542;28;20477;-80
2023/04/25 04:48:24;;;;;;;22.20;15.07;;;;;;;12.31;100.00;93980.00;5073798;28;20511;-82
2023/04/25 04:50:51;;;;;;;20.93;14.80;;;;;;;12.40;100.00;93981.63;5073496;28;20803;-82
2023/04/25 04:53:18;;;;;;;23.63;15.70;;;;;;;12.43;100.00;93987.56;5055304;28;20799;-82
2023/04/25 04:55:46;;;;;;;20.97;15.13;;;;;;;12.47;100.00;93988.91;5073840;28;20471;-80
2023/04/25 04:58:12;;;;;;;23.17;14.90;;;;;;;12.53;100.00;93988.25;5074160;28;20816;-81
2023/04/25 05:00:40;;;;;;;15.87;12.97;;;;;;;12.46;100.00;93976.72;5055073;28;20473;-82
2023/04/25 05:03:06;;;;;;;15.50;12.20;;;;;;;12.43;100.00;93982.28;5073529;28;20453;-82
2023/04/25 05:05:34;;;;;;;17.27;12.97;;;;;;;12.25;100.00;93988.53;5071449;28;20442;-82
2023/04/25 05:08:01;;;;;;;22.13;14.90;;;;;;;12.34;100.00;94005.16;5072247;28;20456;-81
2023/04/25 05:10:28;;;;;;;15.53;12.43;;;;;;;12.21;100.00;93986.41;5072242;28;20449;-81
2023/04/25 05:12:55;;;;;;;17.70;12.53;;;;;;;12.31;100.00;93993.16;5067487;28;20491;-81
2023/04/25 05:15:21;;;;;;;15.30;10.97;;;;;;;12.34;100.00;94005.16;5070893;28;20459;-81
2023/04/25 05:17:48;;;;;;;15.07;10.83;;;;;;;12.47;100.00;94004.69;5071712;28;20445;-81
2023/04/25 05:20:15;;;;;;;14.70;10.37;;;;;;;12.32;100.00;93989.53;5071581;28;20481;-81
2023/04/25 05:22:43;;;;;;;14.10;10.47;;;;;;;12.31;100.00;94002.84;5072379;28;20438;-82
2023/04/25 05:25:10;;;;;;;12.17;10.47;;;;;;;12.38;100.00;94009.91;5071663;28;20456;-82
2023/04/25 05:27:37;;;;;;;15.60;10.60;;;;;;;12.30;100.00;94009.91;5071105;28;20538;-81
2023/04/25 05:30:05;;;;;;;11.10;9.40;;;;;;;12.23;100.00;94006.28;5071536;28;20859;-82
2023/04/25 05:32:32;;;;;;;11.93;9.40;;;;;;;12.21;100.00;94010.06;5071707;28;20525;-82
2023/04/25 05:34:59;;;;;;;9.27;8.17;;;;;;;12.14;100.00;94011.69;5071411;28;20480;-81
2023/04/25 05:37:26;;;;;;;10.30;8.67;;;;;;;12.22;100.00;94014.34;5052619;28;20494;-81
2023/04/25 05:39:54;;;;;;;10.83;7.93;;;;;;;12.22;100.00;94019.59;5071750;28;21052;-81
2023/04/25 05:42:23;;;;;;;9.03;7.80;;;;;;;12.15;100.00;94002.84;5070799;28;20441;-81
2023/04/25 05:44:50;;;;;;;13.50;11.20;;;;;;;11.69;100.00;94011.03;5071392;28;20837;-82
2023/04/25 05:47:17;;;;;;;11.20;10.00;;;;;;;11.89;100.00;94018.69;5072511;28;20452;-82
2023/04/25 05:49:44;;;;;;;16.60;9.27;;;;;;;12.08;100.00;94021.03;5069471;28;20866;-81
2023/04/25 05:52:10;;;;;;;13.83;10.20;;;;;;;12.24;100.00;94023.72;5075302;28;20440;-81
2023/04/25 05:54:37;;;;;;;11.40;8.67;;;;;;;11.98;100.00;94012.47;5040650;28;20487;-82
2023/04/25 05:57:05;;;;;;;13.17;10.10;;;;;;;12.14;100.00;94017.75;5078051;28;20953;-81
2023/04/25 05:59:32;;;;;;;11.70;8.87;;;;;;;12.31;100.00;94018.63;5074028;28;20453;-82
2023/04/25 06:02:00;;;;;;;10.80;9.20;;;;;;;12.44;100.00;94020.81;5075763;28;20998;-81
2023/04/25 06:04:27;;;;;;;10.70;8.33;;;;;;;12.47;100.00;94020.47;5075706;28;20946;-82
2023/04/25 06:06:54;;;;;;;14.47;8.97;;;;;;;12.66;100.00;94030.66;5073378;28;20518;-82
2023/04/25 06:09:21;;;;;;;10.70;9.53;;;;;;;12.73;100.00;94023.78;5075844;28;20437;-82
2023/04/25 06:11:47;;;;;;;12.40;10.67;;;;;;;12.82;100.00;94021.97;5076030;28;20441;-81
2023/04/25 06:14:16;;;;;;;13.43;9.90;;;;;;;12.77;100.00;94014.56;5040552;28;20430;-81
2023/04/25 06:16:42;;;;;;;11.60;8.97;;;;;;;12.95;100.00;94014.38;5075411;28;20438;-81
2023/04/25 06:19:09;;;;;;;11.20;9.10;;;;;;;13.05;100.00;94016.84;5075789;28;20450;-82
2023/04/25 06:21:37;;;;;;;12.20;10.00;;;;;;;13.19;100.00;94013.56;5076793;28;21265;-82
2023/04/25 06:24:05;;;;;;;14.23;10.00;;;;;;;13.29;100.00;94016.81;5077973;28;20523;-81
2023/04/25 06:26:32;;;;;;;13.20;10.37;;;;;;;13.39;100.00;94012.22;5075594;28;20444;-82
2023/04/25 06:28:59;;;;;;;11.63;10.40;;;;;;;13.55;100.00;94025.31;5075436;28;20958;-82
2023/04/25 06:31:28;;;;;;;12.70;9.80;;;;;;;13.59;100.00;94024.03;5075140;28;20802;-82
2023/04/25 06:33:55;;;;;;;12.37;10.63;;;;;;;13.67;100.00;94025.81;5056500;28;20482;-82
2023/04/25 06:36:24;;;;;;;12.60;10.00;;;;;;;13.77;100.00;94013.22;5074885;28;20924;-82
2023/04/25 06:38:51;;;;;;;10.00;9.00;;;;;;;14.11;100.00;94025.28;5075032;28;20471;-82
2023/04/25 06:41:18;;;;;;;17.20;9.47;;;;;;;14.35;100.00;94021.69;5075020;28;20984;-82
2023/04/25 06:43:45;;;;;;;14.40;10.73;;;;;;;14.54;100.00;94022.09;5075132;28;20451;-81
2023/04/25 06:46:12;;;;;;;11.33;10.13;;;;;;;14.63;98.51;94030.78;5075186;28;20857;-82
2023/04/25 06:48:40;;;;;;;10.70;9.23;;;;;;;14.85;96.84;94027.31;5074853;28;20456;-81
2023/04/25 06:51:07;;;;;;;13.97;11.70;;;;;;;14.83;94.44;94031.97;5074873;28;20450;-81
2023/04/25 06:53:33;;;;;;;15.40;12.43;;;;;;;14.94;94.37;94040.44;5075220;28;20447;-82
2023/04/25 06:56:00;;;;;;;13.07;9.80;;;;;;;15.04;95.32;94043.69;5075681;28;20460;-82
2023/04/25 06:58:27;;;;;;;13.30;10.47;;;;;;;15.16;94.61;94039.63;5075187;28;20995;-82
2023/04/25 07:00:54;;;;;;;10.17;8.50;;;;;;;15.56;93.46;94037.56;5074627;28;20486;-82
2023/04/25 07:03:21;;;;;;;11.73;9.20;;;;;;;16.06;92.55;94037.69;5074047;28;20872;-82
2023/04/25 07:05:49;;;;;;;10.60;8.80;;;;;;;16.43;90.22;94038.53;5074787;28;20802;-82
2023/04/25 07:08:15;;;;;;;9.83;7.97;;;;;;;16.47;86.96;94033.69;5075033;28;20455;-82
2023/04/25 07:10:43;;;;;;;8.03;7.30;;;;;;;16.33;86.52;94040.66;5074698;28;20514;-82
2023/04/25 07:13:09;;;;;;;8.40;7.50;;;;;;;16.34;88.36;94040.47;5055693;28;20498;-82
2023/04/25 07:15:36;;;;;;;16.37;8.10;;;;;;;16.10;88.58;94035.50;5074509;28;20448;-82
2023/04/25 07:18:03;;;;;;;8.03;7.20;;;;;;;15.86;88.22;94035.78;5074514;28;20816;-82
2023/04/25 07:20:30;;;;;;;8.20;7.30;;;;;;;15.59;89.29;94026.66;5074116;28;21087;-82
2023/04/25 07:22:58;;;;;;;8.57;7.67;;;;;;;15.65;89.87;94028.59;5074349;28;20988;-82
2023/04/25 07:25:25;;;;;;;9.60;8.60;;;;;;;14.86;93.11;94036.06;5074185;28;20459;-82
2023/04/25 07:27:52;;;;;;;8.40;7.37;;;;;;;14.98;92.87;94016.13;5074249;28;20446;-82
2023/04/25 07:30:19;;;;;;;10.10;8.07;;;;;;;15.05;94.14;94024.19;5073983;28;20507;-82
2023/04/25 07:32:46;;;;;;;7.80;6.93;;;;;;;15.08;95.12;94029.13;5074132;28;20494;-83
2023/04/25 07:35:13;;;;;;;8.30;7.50;;;;;;;15.10;94.45;94016.56;5072820;28;20932;-82
2023/04/25 07:37:39;;;;;;;24.73;8.03;;;;;;;15.14;93.83;94023.13;5073704;28;20935;-82
2023/04/25 07:40:09;;;;;;;7.37;6.57;;;;;;;15.14;93.56;94023.13;5073744;28;20441;-82
2023/04/25 07:42:36;;;;;;;9.00;7.60;;;;;;;14.92;95.34;94013.41;5075007;28;20516;-82
2023/04/25 07:45:03;;;;;;;9.70;6.83;;;;;;;14.67;93.96;94023.31;5075275;28;20448;-82
2023/04/25 07:47:30;;;;;;;8.13;7.33;;;;;;;14.80;94.67;94020.94;5056577;28;20503;-81
2023/04/25 07:49:57;;;;;;;7.43;6.70;;;;;;;14.77;94.68;94011.53;5075247;28;20471;-81
2023/04/25 07:52:25;;;;;;;8.57;6.93;;;;;;;14.66;96.29;94013.75;5075341;28;20803;-82
2023/04/25 07:54:51;;;;;;;13.40;7.50;;;;;;;14.74;96.22;94011.88;5039695;28;20441;-82
2023/04/25 07:57:20;;;;;;;7.47;6.23;;;;;;;14.55;95.35;93996.53;5074660;28;20441;-81
2023/04/25 07:59:46;;;;;;;8.70;7.20;;;;;;;14.88;96.33;93999.72;5075051;28;20442;-83
2023/04/25 08:02:13;;;;;;;7.47;6.77;;;;;;;15.17;94.94;94009.53;5039206;28;20481;-82
2023/04/25 08:04:40;;;;;;;6.97;6.33;;;;;;;15.37;94.40;94005.38;5074366;28;20452;-81
2023/04/25 08:07:07;;;;;;;7.23;6.20;;;;;;;15.61;95.14;94004.34;5055501;28;20515;-81
2023/04/25 08:09:35;;;;;;;10.50;9.40;;;;;;;15.89;94.38;94008.97;5055956;28;20460;-82
2023/04/25 08:12:02;;;;;;;5.73;5.20;;;;;;;16.02;86.81;94009.16;5074412;28;20537;-82
2023/04/25 08:14:35;;;;;;;6.27;5.43;;;;;;;16.12;88.15;94012.31;5073641;28;20934;-81
2023/04/25 08:17:03;;;;;;;8.10;5.87;;;;;;;16.24;88.16;94005.56;5074107;28;20960;-81
2023/04/25 08:19:30;;;;;;;7.00;6.30;;;;;;;16.51;89.96;94011.97;5073447;28;20446;-82
2023/04/25 08:21:58;;;;;;;8.67;6.03;;;;;;;16.85;88.59;94015.78;5073287;28;20565;-82
2023/04/25 08:24:25;;;;;;;6.33;5.27;;;;;;;17.03;84.84;94010.84;5072777;28;20926;-81
2023/04/25 08:26:53;;;;;;;5.93;5.33;;;;;;;17.25;83.76;94020.41;5073170;28;20433;-82
2023/04/25 08:29:20;;;;;;;5.87;5.27;;;;;;;16.93;81.96;94016.47;5073640;28;20451;-81
2023/04/25 08:31:48;;;;;;;5.90;5.33;;;;;;;16.96;82.73;93994.06;5074507;28;20504;-82
2023/04/25 08:34:15;;;;;;;16.03;7.43;;;;;;;17.25;82.35;93995.72;5073630;28;20480;-82
2023/04/25 08:36:42;;;;;;;7.60;6.67;;;;;;;17.59;82.16;93995.75;5074174;28;20440;-82
2023/04/25 08:39:09;;;;;;;7.07;5.77;;;;;;;18.01;81.59;93995.81;5074046;28;20462;-81
2023/04/25 08:41:37;;;;;;;5.73;5.07;;;;;;;18.18;76.82;94002.41;5074008;28;20523;-81
2023/04/25 08:44:06;;;;;;;5.90;5.30;;;;;;;18.23;75.35;94000.03;5073858;28;20454;-81
2023/04/25 08:46:33;;;;;;;14.73;4.93;;;;;;;18.52;74.59;93991.75;5074800;28;20502;-80
2023/04/25 08:49:03;;;;;;;5.07;4.67;;;;;;;18.76;72.36;94000.19;5074096;28;20500;-81
2023/04/25 08:51:32;;;;;;;6.30;5.07;;;;;;;19.02;71.55;93999.41;5074028;28;20885;-81
2023/04/25 08:54:09;;;;;;;9.20;5.23;;;;;;;19.25;72.89;93991.03;5074094;28;20815;-81
2023/04/25 08:56:36;;;;;;;4.97;4.50;;;;;;;19.16;69.25;94001.88;5073996;28;20471;-81
2023/04/25 08:59:04;;;;;;;6.10;4.97;;;;;;;18.68;68.63;93998.53;5073446;28;20503;-81
2023/04/25 09:01:30;;;;;;;5.33;4.87;;;;;;;18.63;69.68;93992.19;5073846;28;20487;-82
2023/04/25 09:03:58;;;;;;;5.00;4.20;;;;;;;18.18;72.73;93999.78;5074126;28;20493;-81
2023/04/25 09:06:27;;;;;;;6.07;5.57;;;;;;;18.18;74.44;93995.28;5073661;28;20495;-82
2023/04/25 09:08:54;;;;;;;10.07;5.67;;;;;;;18.08;71.93;93992.19;5073396;28;20458;-81
2023/04/25 09:11:21;;;;;;;6.33;5.67;;;;;;;18.07;71.44;93984.41;5073322;28;20455;-81
2023/04/25 09:13:47;;;;;;;5.63;5.10;;;;;;;17.96;72.24;93983.16;5073679;28;20447;-84
2023/04/25 09:16:17;;;;;;;6.33;5.70;;;;;;;17.85;74.03;93979.19;5073491;28;20444;-84
2023/04/25 09:18:43;;;;;;;8.70;6.73;;;;;;;17.66;77.35;93982.56;5074506;28;20482;-84
2023/04/25 09:21:12;;;;;;;8.97;8.10;;;;;;;17.71;80.13;93984.66;5073883;28;20485;-84
2023/04/25 09:23:45;;;;;;;9.57;7.10;;;;;;;17.87;78.23;93981.66;5074532;28;20924;-84
2023/04/25 09:26:15;;;;;;;7.43;6.33;;;;;;;17.73;80.57;93975.47;5073685;28;20462;-84
2023/04/25 09:28:42;;;;;;;6.50;5.90;;;;;;;17.86;76.14;93969.41;5073427;28;20447;-85
2023/04/25 09:31:11;;;;;;;6.30;5.70;;;;;;;18.07;74.56;93973.78;5073405;28;20909;-85
2023/04/25 09:33:38;;;;;;;4.27;3.93;;;;;;;18.11;72.86;93959.09;5073226;28;20512;-85
2023/04/25 09:36:08;;;;;;;6.67;4.80;;;;;;;17.86;69.83;93962.25;5074091;28;20430;-84
2023/04/25 09:38:43;;;;;;;5.30;4.90;;;;;;;18.45;82.20;93964.31;5075628;28;20496;-87
2023/04/25 09:41:12;;;;;;;4.77;4.33;;;;;;;18.71;72.78;93974.22;5075773;28;20437;-87
2023/04/25 09:43:40;;;;;;;4.33;4.03;;;;;;;19.19;74.60;93972.22;5075675;28;20523;-87
2023/04/25 09:46:10;;;;;;;5.70;4.30;;;;;;;19.49;73.04;93969.13;5056086;28;20853;-84
2023/04/25 09:48:37;;;;;;;5.73;4.57;;;;;;;19.70;74.22;93968.91;5073449;28;20431;-82
2023/04/25 09:51:08;;;;;;;4.27;3.67;;;;;;;19.73;70.69;93983.66;5073597;28;20766;-82
2023/04/25 09:53:37;;;;;;;5.67;5.10;;;;;;;19.64;73.28;93975.03;5071114;28;20957;-83
2023/04/25 09:56:08;;;;;;;7.23;6.10;;;;;;;19.66;72.26;93973.03;5073267;28;20446;-83
2023/04/25 09:58:36;;;;;;;7.18;6.57;;;;;;;19.25;73.50;93969.75;5073114;28;20848;-84
2023/04/25 10:01:06;;;;;;;8.07;6.50;;;;;;;18.83;74.86;93977.09;5077489;28;20662;-83
2023/04/25 10:03:34;;;;;;;7.37;6.67;;;;;;;18.32;77.57;93976.75;5076150;28;20529;-83
2023/04/25 10:06:04;;;;;;;7.67;6.90;;;;;;;18.01;79.30;93966.63;5076651;28;20826;-82
2023/04/25 10:08:33;;;;;;;10.30;5.80;;;;;;;17.53;80.49;93955.94;5078761;28;20531;-83
2023/04/25 10:11:02;;;;;;;6.07;5.07;;;;;;;17.35;79.05;93953.81;5076378;28;20466;-82
2023/04/25 10:13:36;;;;;;;5.77;5.27;;;;;;;17.05;80.60;93961.09;5076215;28;20502;-83
2023/04/25 10:16:05;;;;;;;9.53;5.60;;;;;;;17.00;81.20;93961.69;5074759;28;20451;-83
2023/04/25 10:18:33;;;;;;;6.77;6.07;;;;;;;17.01;84.63;93951.91;5076662;28;20496;-83
2023/04/25 10:21:01;;;;;;;6.20;4.40;;;;;;;16.95;79.56;93947.38;5077944;28;20543;-83
2023/04/25 10:23:31;;;;;;;5.53;4.27;;;;;;;16.96;76.44;93941.88;5077180;28;20443;-82
2023/04/25 10:25:58;;;;;;;5.37;4.90;;;;;;;17.13;76.60;93944.25;5078837;28;21023;-82
2023/04/25 10:28:25;;;;;;;4.93;4.23;;;;;;;17.30;74.42;93954.34;5079699;28;20455;-83
2023/04/25 10:31:00;;;;;;;4.60;4.20;;;;;;;17.40;76.20;93967.28;5080329;28;20520;-83
2023/04/25 10:33:34;;;;;;;5.37;3.13;;;;;;;17.32;71.94;93973.53;5078155;28;20440;-83
2023/04/25 10:36:11;;;;;;;4.30;2.43;;;;;;;17.30;66.84;93949.06;5078769;28;20479;-83
2023/04/25 10:38:42;;;;;;;4.00;2.40;;;;;;;17.31;66.04;93952.53;5081433;28;20456;-84
2023/04/25 10:41:10;;;;;;;3.90;3.60;;;;;;;17.44;72.69;93957.13;5075580;28;20458;-85
2023/04/25 10:43:39;;;;;;;4.80;4.07;;;;;;;17.41;76.00;93949.56;5079473;28;20447;-84
2023/04/25 10:46:22;;;;;;;10.93;5.97;;;;;;;17.54;75.78;93941.66;5075672;28;20942;-85
2023/04/25 10:48:50;;;;;;;4.17;3.77;;;;;;;17.45;69.93;93945.50;5075088;28;20951;-85
2023/04/25 10:51:22;;;;;;;5.37;4.23;;;;;;;17.52;69.76;93941.84;5075087;28;20458;-84
2023/04/25 10:53:59;;;;;;;9.57;3.67;;;;;;;17.55;67.90;93944.09;5075823;28;20946;-85
2023/04/25 10:56:27;;;;;;;6.83;2.90;;;;;;;17.59;68.30;93949.84;5075325;28;20899;-85
2023/04/25 10:59:05;;;;;;;2.60;1.97;;;;;;;17.56;65.13;93964.31;5075531;28;20543;-85
2023/04/25 11:01:38;;;;;;;3.30;2.30;;;;;;;16.83;72.95;93957.69;5075227;28;20981;-84
2023/04/25 11:04:05;;;;;;;5.87;2.80;;;;;;;16.32;74.11;93959.59;5075038;28;20439;-85
2023/04/25 11:06:44;;;;;;;3.03;2.83;;;;;;;16.22;76.06;93964.38;5075181;28;20895;-84
2023/04/25 11:09:13;;;;;;;6.50;2.97;;;;;;;16.17;76.59;93966.75;5076823;28;20453;-84
2023/04/25 11:11:40;;;;;;;3.27;2.70;;;;;;;16.04;76.50;93967.44;5074957;28;20456;-84
2023/04/25 11:14:07;;;;;;;4.40;3.07;;;;;;;16.07;76.81;93972.34;5075112;28;20446;-84
2023/04/25 11:16:36;;;;;;;7.00;3.10;;;;;;;16.13;78.36;93966.31;5074494;28;20831;-84
2023/04/25 11:19:03;;;;;;;5.03;3.20;;;;;;;16.19;79.97;93954.16;5074665;28;20975;-85
2023/04/25 11:21:31;;;;;;;17.00;7.17;;;;;;;16.28;83.60;93948.56;5074626;28;20466;-84
2023/04/25 11:23:58;;;;;;;2.37;2.17;;;;;;;16.02;84.99;93954.38;5074331;28;20443;-85
2023/04/25 11:26:25;;;;;;;2.70;2.50;;;;;;;16.21;86.80;93946.88;5074189;28;20438;-85